Ceres, West Virginia
Current Conditions -  °F | °C
As of 3:52 AM on Friday 31 Oct 2014 (Local Time) from KBLF Reporting Station
Scattered Clouds Scattered Clouds  
Wind Chill: 35°   Ceiling: Unl
Heat Index: 35°   Visibility: 10mi
Dew Point: 30°   Wind: 3mph
Humidity: 82%   Direction: 90°E
Pressure: 29.98"   Gusts: NA
Location:  37.2994°N, 81.226°W
Report Text: KBLF 310752Z AUTO 09003KT 10SM SCT035 02/M01 A2998 RMK AO2 SLP153 T00171011
Loading
Personal Weather Stations






























Interactive Weather Map
Tropical Storm Tracking
New forecast layout! Learn more

10-Day Weather Forecast

Advertisements
Track Severe Weather on mobile